createdAt,value
2022-09-03T00:00:17.519Z,99.99
2022-09-03T00:01:17.549Z,99.99
2022-09-03T00:02:17.477Z,99.99
2022-09-03T00:03:17.521Z,99.99
2022-09-03T00:04:23.847Z,99.99
2022-09-03T00:05:17.470Z,99.99
2022-09-03T00:06:17.505Z,99.99
2022-09-03T00:07:17.477Z,99.99
2022-09-03T00:08:17.569Z,99.99
2022-09-03T00:09:17.553Z,99.99
2022-09-03T00:10:20.403Z,99.99
2022-09-03T00:11:17.529Z,99.99
2022-09-03T00:12:17.492Z,99.99
2022-09-03T00:13:17.490Z,99.99
2022-09-03T00:14:17.494Z,99.99
2022-09-03T00:15:17.490Z,99.99
2022-09-03T00:16:17.724Z,99.99
2022-09-03T00:17:17.501Z,99.99
2022-09-03T00:18:17.655Z,99.99
2022-09-03T00:19:17.505Z,99.99
2022-09-03T00:20:17.498Z,99.99
2022-09-03T00:21:20.538Z,99.99
2022-09-03T00:22:17.503Z,99.99
2022-09-03T00:23:17.506Z,99.99
2022-09-03T00:24:17.580Z,99.99
2022-09-03T00:25:17.518Z,99.99
2022-09-03T00:26:17.535Z,99.99
2022-09-03T00:27:17.512Z,99.99
2022-09-03T00:28:17.576Z,99.99
2022-09-03T00:29:17.511Z,99.99
2022-09-03T00:30:19.701Z,99.99
2022-09-03T00:31:17.652Z,99.99
2022-09-03T00:32:20.604Z,99.99
2022-09-03T00:33:17.516Z,99.99
2022-09-03T00:34:17.553Z,99.99
2022-09-03T00:35:17.537Z,99.99
2022-09-03T00:36:17.552Z,99.99
2022-09-03T00:37:18.073Z,99.99
2022-09-03T00:38:17.621Z,99.99
2022-09-03T00:39:17.576Z,99.99
2022-09-03T00:40:17.527Z,99.99
2022-09-03T00:41:17.538Z,99.99
2022-09-03T00:42:17.540Z,99.99
2022-09-03T00:43:20.465Z,99.99
2022-09-03T00:44:17.543Z,99.99
2022-09-03T00:45:17.539Z,99.99
2022-09-03T00:49:17.565Z,99.99
2022-09-03T00:50:17.562Z,99.99
2022-09-03T00:51:17.562Z,99.99
2022-09-03T00:52:17.567Z,99.99
2022-09-03T00:53:17.590Z,99.99
2022-09-03T00:54:20.590Z,99.99
2022-09-03T00:55:17.568Z,99.99
2022-09-03T00:56:17.588Z,99.99
2022-09-03T00:57:17.612Z,99.99
2022-09-03T00:58:17.634Z,99.99
2022-09-03T00:59:17.625Z,99.99
2022-09-03T01:00:17.593Z,99.99
2022-09-03T01:01:17.849Z,99.99
2022-09-03T01:02:18.016Z,99.99
2022-09-03T01:03:17.625Z,99.99
2022-09-03T01:04:17.600Z,99.99
2022-09-03T01:05:20.328Z,99.99
2022-09-03T01:06:17.614Z,99.99
2022-09-03T01:07:17.606Z,99.99
2022-09-03T01:08:17.587Z,99.99
2022-09-03T01:09:17.605Z,99.99
2022-09-03T01:10:17.594Z,99.99
2022-09-03T01:11:17.593Z,99.99
2022-09-03T01:12:18.588Z,99.99
2022-09-03T01:13:17.590Z,99.99
2022-09-03T01:14:17.608Z,99.99
2022-09-03T01:15:17.590Z,99.99
2022-09-03T01:16:20.907Z,99.99
2022-09-03T01:17:17.596Z,99.99
2022-09-03T01:18:17.718Z,99.99
2022-09-03T01:19:17.611Z,99.99
2022-09-03T01:20:17.603Z,99.99
2022-09-03T01:21:17.598Z,99.99
2022-09-03T01:22:17.604Z,99.99
2022-09-03T01:23:17.609Z,99.99
2022-09-03T01:24:17.621Z,99.99
2022-09-03T01:25:17.642Z,99.99
2022-09-03T01:26:17.607Z,99.99
2022-09-03T01:27:17.625Z,99.99
2022-09-03T01:28:17.711Z,99.99
2022-09-03T01:29:17.634Z,99.99
2022-09-03T01:30:17.618Z,99.99
2022-09-03T01:31:17.747Z,99.99
2022-09-03T01:32:17.642Z,99.99
2022-09-03T01:33:17.621Z,99.99
2022-09-03T01:34:17.641Z,99.99
2022-09-03T01:35:17.661Z,99.99
2022-09-03T01:36:17.623Z,99.99
2022-09-03T01:37:17.633Z,99.99
2022-09-03T01:38:17.728Z,99.99
2022-09-03T01:39:17.665Z,99.99
2022-09-03T01:40:17.638Z,99.99
2022-09-03T01:41:17.650Z,99.99
2022-09-03T01:42:22.651Z,99.99
2022-09-03T01:43:20.439Z,99.99
2022-09-03T01:44:17.670Z,99.99
2022-09-03T01:45:17.640Z,99.99
2022-09-03T01:46:19.359Z,99.99
2022-09-03T01:47:17.643Z,99.99
2022-09-03T01:48:17.677Z,99.99
2022-09-03T01:49:17.665Z,99.99
2022-09-03T01:50:17.691Z,99.99
2022-09-03T01:51:17.654Z,99.99
2022-09-03T01:52:17.652Z,99.99
2022-09-03T01:53:17.658Z,99.99
2022-09-03T01:54:23.755Z,99.99
2022-09-03T01:55:17.655Z,99.99
2022-09-03T01:56:17.669Z,99.99
2022-09-03T01:57:37.750Z,99.99
2022-09-03T01:58:17.714Z,99.99
2022-09-03T01:59:17.696Z,99.99
2022-09-03T02:00:17.676Z,99.99
2022-09-03T02:01:20.416Z,99.99
2022-09-03T02:02:17.779Z,99.99
2022-09-03T02:03:17.666Z,99.99
2022-09-03T02:04:17.695Z,99.99
2022-09-03T02:05:17.685Z,99.99
2022-09-03T02:06:17.686Z,99.99
2022-09-03T02:07:17.686Z,99.99
2022-09-03T02:08:17.816Z,99.99
2022-09-03T02:09:18.084Z,99.99
2022-09-03T02:10:17.687Z,99.99
2022-09-03T02:11:18.331Z,99.99
2022-09-03T02:12:17.705Z,99.99
2022-09-03T02:13:17.696Z,99.99
2022-09-03T02:14:17.693Z,99.99
2022-09-03T02:15:17.697Z,99.99
2022-09-03T02:16:17.869Z,99.99
2022-09-03T02:17:17.705Z,99.99
2022-09-03T02:18:17.793Z,99.99
2022-09-03T02:19:17.701Z,99.99
2022-09-03T02:20:17.705Z,99.99
2022-09-03T02:21:17.706Z,99.99
2022-09-03T02:22:17.705Z,99.99
2022-09-03T02:23:17.706Z,99.99
2022-09-03T02:24:17.733Z,99.99
2022-09-03T02:25:17.715Z,99.99
2022-09-03T02:26:20.465Z,99.99
2022-09-03T02:27:17.730Z,99.99
2022-09-03T02:28:19.411Z,99.99
2022-09-03T02:29:17.711Z,99.99
2022-09-03T02:30:17.729Z,99.99
2022-09-03T02:31:17.864Z,99.99
2022-09-03T02:32:17.723Z,99.99
2022-09-03T02:33:17.726Z,99.99
2022-09-03T02:34:17.733Z,99.99
2022-09-03T02:35:17.732Z,99.99
2022-09-03T02:36:17.726Z,99.99
2022-09-03T02:37:20.634Z,99.99
2022-09-03T02:38:17.875Z,99.99
2022-09-03T02:39:17.801Z,99.99
2022-09-03T02:40:17.738Z,99.99
2022-09-03T02:41:17.780Z,99.99
2022-09-03T02:42:17.743Z,99.99
2022-09-03T02:43:17.749Z,99.99
2022-09-03T02:44:17.749Z,99.99
2022-09-03T02:45:17.806Z,99.99
2022-09-03T02:46:18.008Z,99.99
2022-09-03T02:47:17.752Z,99.99
2022-09-03T02:48:20.867Z,99.99
2022-09-03T02:49:17.752Z,99.99
2022-09-03T02:50:17.755Z,99.99
2022-09-03T02:51:17.758Z,99.99
2022-09-03T02:52:17.759Z,99.99
2022-09-03T02:53:17.759Z,99.99
2022-09-03T02:54:23.903Z,99.99
2022-09-03T02:55:17.780Z,99.99
2022-09-03T02:56:17.760Z,99.99
2022-09-03T02:57:18.437Z,99.99
2022-09-03T02:58:17.844Z,99.99
2022-09-03T02:59:20.545Z,99.99
2022-09-03T03:00:17.776Z,99.99
2022-09-03T03:01:26.231Z,99.99
2022-09-03T03:02:17.924Z,99.99
2022-09-03T03:03:17.867Z,99.99
2022-09-03T03:04:17.778Z,99.99
2022-09-03T03:05:17.799Z,99.99
2022-09-03T03:06:17.777Z,99.99
2022-09-03T03:07:17.785Z,99.99
2022-09-03T03:08:17.905Z,99.99
2022-09-03T03:09:17.823Z,99.99
2022-09-03T03:10:20.835Z,99.99
2022-09-03T03:11:17.790Z,99.99
2022-09-03T03:12:17.825Z,99.99
2022-09-03T03:13:17.810Z,99.99
2022-09-03T03:14:17.804Z,99.99
2022-09-03T03:15:17.816Z,99.99
2022-09-03T03:16:17.953Z,99.99
2022-09-03T03:17:17.801Z,99.99
2022-09-03T03:18:17.856Z,99.99
2022-09-03T03:19:17.808Z,99.99
2022-09-03T03:20:17.825Z,99.99
2022-09-03T03:21:20.600Z,99.99
2022-09-03T03:22:17.804Z,99.99
2022-09-03T03:23:17.811Z,99.99
2022-09-03T03:24:17.808Z,99.99
2022-09-03T03:25:19.333Z,99.99
2022-09-03T03:26:17.810Z,99.99
2022-09-03T03:27:17.824Z,99.99
2022-09-03T03:28:17.844Z,99.99
2022-09-03T03:29:17.815Z,99.99
2022-09-03T03:30:17.835Z,99.99
2022-09-03T03:31:17.958Z,99.99
2022-09-03T03:32:20.989Z,99.99
2022-09-03T03:33:17.820Z,99.99
2022-09-03T03:34:17.831Z,99.99
2022-09-03T03:35:17.849Z,99.99
2022-09-03T03:36:17.834Z,99.99
2022-09-03T03:37:17.833Z,99.99
2022-09-03T03:38:17.955Z,99.99
2022-09-03T03:39:17.896Z,99.99
2022-09-03T03:40:17.860Z,99.99
2022-09-03T03:41:17.837Z,99.99
2022-09-03T03:42:17.843Z,99.99
2022-09-03T03:43:20.859Z,99.99
2022-09-03T03:44:17.847Z,99.99
2022-09-03T03:45:17.883Z,99.99
2022-09-03T03:46:18.053Z,99.99
2022-09-03T03:47:17.853Z,99.99
2022-09-03T03:48:18.338Z,99.99
2022-09-03T03:49:17.851Z,99.99
2022-09-03T03:50:17.877Z,99.99
2022-09-03T03:51:17.855Z,99.99
2022-09-03T03:52:17.864Z,99.99
2022-09-03T03:53:17.858Z,99.99
2022-09-03T03:54:23.044Z,99.99
2022-09-03T03:55:18.306Z,99.99
2022-09-03T03:56:17.877Z,99.99
2022-09-03T03:57:17.867Z,99.99
2022-09-03T03:58:17.919Z,99.99
2022-09-03T03:59:17.871Z,99.99
2022-09-03T04:00:17.897Z,99.99
2022-09-03T04:01:17.996Z,99.99
2022-09-03T04:02:18.033Z,99.99
2022-09-03T04:03:17.877Z,99.99
2022-09-03T04:04:17.898Z,99.99
2022-09-03T04:05:25.125Z,99.99
2022-09-03T04:06:17.879Z,99.99
2022-09-03T04:07:17.901Z,99.99
2022-09-03T04:08:17.980Z,99.99
2022-09-03T04:09:17.888Z,99.99
2022-09-03T04:10:19.227Z,99.99
2022-09-03T04:11:17.891Z,99.99
2022-09-03T04:12:17.919Z,99.99
2022-09-03T04:13:17.895Z,99.99
2022-09-03T04:14:17.899Z,99.99
2022-09-03T04:15:17.927Z,99.99
2022-09-03T04:16:17.994Z,99.99
2022-09-03T04:17:20.081Z,99.99
2022-09-03T04:18:18.005Z,99.99
2022-09-03T04:19:17.903Z,99.99
2022-09-03T04:20:17.920Z,99.99
2022-09-03T04:21:21.029Z,99.99
2022-09-03T04:22:17.910Z,99.99
2022-09-03T04:23:17.912Z,99.99
2022-09-03T04:24:17.912Z,99.99
2022-09-03T04:25:17.931Z,99.99
2022-09-03T04:26:17.920Z,99.99
2022-09-03T04:27:17.920Z,99.99
2022-09-03T04:28:18.041Z,99.99
2022-09-03T04:29:17.924Z,99.99
2022-09-03T04:30:18.320Z,99.99
2022-09-03T04:31:18.056Z,99.99
2022-09-03T04:32:17.925Z,99.99
2022-09-03T04:33:18.612Z,99.99
2022-09-03T04:34:17.927Z,99.99
2022-09-03T04:35:17.924Z,99.99
2022-09-03T04:36:17.932Z,99.99
2022-09-03T04:37:17.934Z,99.99
2022-09-03T04:38:17.964Z,99.99
2022-09-03T04:39:17.972Z,99.99
2022-09-03T04:40:18.979Z,99.99
2022-09-03T04:41:17.948Z,99.99
2022-09-03T04:42:17.942Z,99.99
2022-09-03T04:43:17.943Z,99.99
2022-09-03T04:44:17.945Z,99.99
2022-09-03T04:45:17.948Z,99.99
2022-09-03T04:46:19.941Z,99.99
2022-09-03T04:47:17.947Z,99.99
2022-09-03T04:48:18.018Z,99.99
2022-09-03T04:49:17.951Z,99.99
2022-09-03T04:50:17.960Z,99.99
2022-09-03T04:51:17.958Z,99.99
2022-09-03T04:52:17.959Z,99.99
2022-09-03T04:53:20.774Z,99.99
2022-09-03T04:54:17.958Z,99.99
2022-09-03T04:55:17.961Z,99.99
2022-09-03T04:56:17.965Z,99.99
2022-09-03T04:57:17.968Z,99.99
2022-09-03T04:58:18.033Z,99.99
2022-09-03T04:59:17.971Z,99.99
2022-09-03T05:00:19.887Z,99.99
2022-09-03T05:01:18.091Z,99.99
2022-09-03T05:02:18.174Z,99.99
2022-09-03T05:03:17.978Z,99.99
2022-09-03T05:04:20.772Z,99.99
2022-09-03T05:05:17.985Z,99.99
2022-09-03T05:06:17.983Z,99.99
2022-09-03T05:07:17.987Z,99.99
2022-09-03T05:08:19.050Z,99.99
2022-09-03T05:09:17.988Z,99.99
2022-09-03T05:10:17.991Z,99.99
2022-09-03T05:11:17.993Z,99.99
2022-09-03T05:12:17.997Z,99.99
2022-09-03T05:13:18.734Z,99.99
2022-09-03T05:14:17.991Z,99.99
2022-09-03T05:15:21.789Z,99.99
2022-09-03T05:16:18.166Z,99.99
2022-09-03T05:17:18.003Z,99.99
2022-09-03T05:18:18.088Z,99.99
2022-09-03T05:19:18.003Z,99.99
2022-09-03T05:20:18.011Z,99.99
2022-09-03T05:21:18.024Z,99.99
2022-09-03T05:22:18.003Z,99.99
2022-09-03T05:23:18.010Z,99.99
2022-09-03T05:24:18.020Z,99.99
2022-09-03T05:25:18.009Z,99.99
2022-09-03T05:26:20.847Z,99.99
2022-09-03T05:27:18.026Z,99.99
2022-09-03T05:28:18.050Z,99.99
2022-09-03T05:29:18.021Z,99.99
2022-09-03T05:30:18.022Z,99.99
2022-09-03T05:31:18.136Z,99.99
2022-09-03T05:32:18.033Z,99.99
2022-09-03T05:33:18.023Z,99.99
2022-09-03T05:34:18.756Z,99.99
2022-09-03T05:35:18.032Z,99.99
2022-09-03T05:36:18.034Z,99.99
2022-09-03T05:37:20.870Z,99.99
2022-09-03T05:38:18.103Z,99.99
2022-09-03T05:39:18.110Z,99.99
2022-09-03T05:40:18.036Z,99.99
2022-09-03T05:41:18.875Z,99.99
2022-09-03T05:42:18.047Z,99.99
2022-09-03T05:43:18.039Z,99.99
2022-09-03T05:44:18.045Z,99.99
2022-09-03T05:45:18.050Z,99.99
2022-09-03T05:46:18.085Z,99.99
2022-09-03T05:47:18.049Z,99.99
2022-09-03T05:48:21.263Z,99.99
2022-09-03T05:49:18.053Z,99.99
2022-09-03T05:50:18.054Z,99.99
2022-09-03T05:51:18.081Z,99.99
2022-09-03T05:52:18.061Z,99.99
2022-09-03T05:53:18.088Z,99.99
2022-09-03T05:54:18.088Z,99.99
2022-09-03T05:55:18.078Z,99.99
2022-09-03T05:56:18.126Z,99.99
2022-09-03T05:57:18.064Z,99.99
2022-09-03T05:58:18.065Z,99.99
2022-09-03T05:59:20.879Z,99.99
2022-09-03T06:00:18.075Z,99.99
2022-09-03T06:01:18.142Z,99.99
2022-09-03T06:02:22.101Z,99.99
2022-09-03T06:03:18.496Z,99.99
2022-09-03T06:04:18.087Z,99.99
2022-09-03T06:05:18.080Z,99.99
2022-09-03T06:06:18.102Z,99.99
2022-09-03T06:07:18.080Z,99.99
2022-09-03T06:08:18.087Z,99.99
2022-09-03T06:09:18.111Z,99.99
2022-09-03T06:10:25.072Z,99.99
2022-09-03T06:11:18.104Z,99.99
2022-09-03T06:12:18.098Z,99.99
2022-09-03T06:13:18.149Z,99.99
2022-09-03T06:14:18.096Z,99.99
2022-09-03T06:15:18.095Z,99.99
2022-09-03T06:16:18.251Z,99.99
2022-09-03T06:17:18.105Z,99.99
2022-09-03T06:18:18.106Z,99.99
2022-09-03T06:19:18.109Z,99.99
2022-09-03T06:20:18.104Z,99.99
2022-09-03T06:21:18.128Z,99.99
2022-09-03T06:22:18.111Z,99.99
2022-09-03T06:23:18.111Z,99.99
2022-09-03T06:24:18.347Z,99.99
2022-09-03T06:25:18.120Z,99.99
2022-09-03T06:26:18.131Z,99.99
2022-09-03T06:27:18.114Z,99.99
2022-09-03T06:28:18.173Z,99.99
2022-09-03T06:29:18.115Z,99.99
2022-09-03T06:30:18.133Z,99.99
2022-09-03T06:31:18.268Z,99.99
2022-09-03T06:32:18.124Z,99.99
2022-09-03T06:33:18.214Z,99.99
2022-09-03T06:34:18.138Z,99.99
2022-09-03T06:35:18.136Z,99.99
2022-09-03T06:36:18.156Z,99.99
2022-09-03T06:37:21.155Z,99.99
2022-09-03T06:38:18.236Z,99.99
2022-09-03T06:39:18.185Z,99.99
2022-09-03T06:40:18.136Z,99.99
2022-09-03T06:41:18.153Z,99.99
2022-09-03T06:42:18.148Z,99.99
2022-09-03T06:43:18.140Z,99.99
2022-09-03T06:44:18.152Z,99.99
2022-09-03T06:45:18.180Z,99.99
2022-09-03T06:46:18.218Z,99.99
2022-09-03T06:47:18.152Z,99.99
2022-09-03T06:48:20.983Z,99.99
2022-09-03T06:49:18.161Z,99.99
2022-09-03T06:50:18.159Z,99.99
2022-09-03T06:51:18.175Z,99.99
2022-09-03T06:52:18.217Z,99.99
2022-09-03T06:53:18.164Z,99.99
2022-09-03T06:54:18.165Z,99.99
2022-09-03T06:55:18.163Z,99.99
2022-09-03T06:56:18.179Z,99.99
2022-09-03T06:57:18.167Z,99.99
2022-09-03T06:58:18.318Z,99.99
2022-09-03T06:59:18.179Z,99.99
2022-09-03T07:00:18.183Z,99.99
2022-09-03T07:01:18.588Z,99.99
2022-09-03T07:02:18.449Z,99.99
2022-09-03T07:03:18.177Z,99.99
2022-09-03T07:04:19.442Z,99.99
2022-09-03T07:05:18.191Z,99.99
2022-09-03T07:06:18.202Z,99.99
2022-09-03T07:07:18.192Z,99.99
2022-09-03T07:08:18.200Z,99.39
2022-09-03T07:09:18.461Z,97.95
2022-09-03T07:10:18.191Z,97.61
2022-09-03T07:11:18.222Z,97.24
2022-09-03T07:12:18.202Z,96.13
2022-09-03T07:13:18.197Z,95.4
2022-09-03T07:14:18.200Z,94.21
2022-09-03T07:15:18.200Z,93.82
2022-09-03T07:16:18.302Z,93.1
2022-09-03T07:17:18.210Z,92.43
2022-09-03T07:18:18.298Z,91.66
2022-09-03T07:19:18.223Z,92.18
2022-09-03T07:20:21.006Z,92.13
2022-09-03T07:21:18.268Z,90.54
2022-09-03T07:22:18.212Z,89.67
2022-09-03T07:23:18.221Z,89.09
2022-09-03T07:24:18.338Z,88.51
2022-09-03T07:25:18.223Z,87.36
2022-09-03T07:26:18.362Z,87.46
2022-09-03T07:27:18.223Z,87.65
2022-09-03T07:28:19.007Z,87.3
2022-09-03T07:29:18.485Z,87.21
2022-09-03T07:30:18.232Z,87.02
2022-09-03T07:31:21.452Z,87.02
2022-09-03T07:32:18.303Z,87.3
2022-09-03T07:33:18.233Z,87.46
2022-09-03T07:34:18.238Z,87.36
2022-09-03T07:35:18.238Z,87.36
2022-09-03T07:36:19.305Z,87.8
2022-09-03T07:37:18.252Z,87.7
2022-09-03T07:38:18.335Z,88.57
2022-09-03T07:39:18.418Z,88.38
2022-09-03T07:40:18.249Z,88.67
2022-09-03T07:41:29.320Z,89.1
2022-09-03T07:42:21.155Z,89.87
2022-09-03T07:43:18.256Z,90.02
2022-09-03T07:44:18.263Z,90.45
2022-09-03T07:45:18.253Z,90.02
2022-09-03T07:46:18.330Z,90.21
2022-09-03T07:47:26.961Z,90.31
2022-09-03T07:48:18.352Z,90.5
2022-09-03T07:49:18.266Z,90.69
2022-09-03T07:50:18.267Z,90.69
2022-09-03T07:51:18.269Z,90.65
2022-09-03T07:52:20.620Z,91.32
2022-09-03T07:53:21.042Z,91.61
2022-09-03T07:54:18.271Z,91.75
2022-09-03T07:55:18.272Z,91.13
2022-09-03T07:56:18.275Z,91.36
2022-09-03T07:57:18.289Z,91.36
2022-09-03T07:58:18.325Z,91.08
2022-09-03T07:59:18.626Z,90.26
2022-09-03T08:00:18.281Z,89.87
2022-09-03T08:01:18.490Z,89.53
2022-09-03T08:02:18.310Z,88.81
2022-09-03T08:03:18.287Z,88.51
2022-09-03T08:04:21.523Z,87.65
2022-09-03T08:05:18.290Z,87.21
2022-09-03T08:06:18.295Z,86.44
2022-09-03T08:07:18.304Z,85.91
2022-09-03T08:08:18.793Z,85.81
2022-09-03T08:09:18.296Z,86
2022-09-03T08:10:18.295Z,85.81
2022-09-03T08:11:18.305Z,85.27
2022-09-03T08:12:18.321Z,84.84
2022-09-03T08:13:18.307Z,85.27
2022-09-03T08:14:18.311Z,84.83
2022-09-03T08:15:21.208Z,84.25
2022-09-03T08:16:18.404Z,84.2
2022-09-03T08:17:18.330Z,83.62
2022-09-03T08:18:18.386Z,83.23
2022-09-03T08:19:18.533Z,83.23
2022-09-03T08:20:18.314Z,82.84
2022-09-03T08:21:18.316Z,83.23
2022-09-03T08:22:18.370Z,83.14
2022-09-03T08:23:18.324Z,83.25
2022-09-03T08:24:18.322Z,83.77
2022-09-03T08:25:18.324Z,82.75
2022-09-03T08:26:21.375Z,83.23
2022-09-03T08:27:18.350Z,82.17
2022-09-03T08:28:18.381Z,81.59
2022-09-03T08:29:18.331Z,82.26
2022-09-03T08:30:18.357Z,82.4
2022-09-03T08:31:18.482Z,82.46
2022-09-03T08:32:18.360Z,82.84
2022-09-03T08:33:18.345Z,83.42
2022-09-03T08:34:18.349Z,83.19
2022-09-03T08:35:18.348Z,83.39
2022-09-03T08:36:18.354Z,83.48
2022-09-03T08:37:21.390Z,83.48
2022-09-03T08:38:18.349Z,83.63
2022-09-03T08:39:18.418Z,84.35
2022-09-03T08:40:18.368Z,84.06
2022-09-03T08:41:18.363Z,83.92
2022-09-03T08:42:18.376Z,84.35
2022-09-03T08:43:18.360Z,84.41
2022-09-03T08:44:18.369Z,84.64
2022-09-03T08:45:18.361Z,85.31
2022-09-03T08:46:18.464Z,84.01
2022-09-03T08:47:18.400Z,84.69
2022-09-03T08:48:25.203Z,84.79
2022-09-03T08:49:18.374Z,84.98
2022-09-03T08:50:18.381Z,84.89
2022-09-03T08:51:18.377Z,85.17
2022-09-03T08:52:18.395Z,85.6
2022-09-03T08:53:18.384Z,85.8
2022-09-03T08:54:18.375Z,85.02
2022-09-03T08:55:18.381Z,85.02
2022-09-03T08:56:18.411Z,84.35
2022-09-03T08:57:18.405Z,83.87
2022-09-03T08:58:18.454Z,84.39
2022-09-03T08:59:18.401Z,84.68
2022-09-03T09:00:18.597Z,83.95
2022-09-03T09:01:18.485Z,83.12
2022-09-03T09:02:18.788Z,82.06
2022-09-03T09:03:18.395Z,81.77
2022-09-03T09:04:21.194Z,81.29
2022-09-03T09:05:24.810Z,80.55
2022-09-03T09:06:18.401Z,80.16
2022-09-03T09:07:18.424Z,80.74
2022-09-03T09:08:18.471Z,80.65
2022-09-03T09:09:18.417Z,80.07
2022-09-03T09:10:18.429Z,80.74
2022-09-03T09:11:18.409Z,81.13
2022-09-03T09:12:18.499Z,80.07
2022-09-03T09:13:18.509Z,79.91
2022-09-03T09:14:18.472Z,79.58
2022-09-03T09:15:21.294Z,79
2022-09-03T09:16:18.632Z,79.29
2022-09-03T09:17:18.465Z,79
2022-09-03T09:18:18.614Z,80.16
2022-09-03T09:19:18.428Z,80.59
2022-09-03T09:20:18.475Z,79.14
2022-09-03T09:21:27.473Z,79.1
2022-09-03T09:22:18.505Z,78.36
2022-09-03T09:23:19.511Z,78.75
2022-09-03T09:24:18.436Z,78.66
2022-09-03T09:25:18.441Z,78.5
2022-09-03T09:26:18.437Z,78.21
2022-09-03T09:27:18.635Z,77.67
2022-09-03T09:28:18.542Z,77.14
2022-09-03T09:29:18.449Z,77.19
2022-09-03T09:30:18.530Z,76.99
2022-09-03T09:31:18.607Z,77.28
2022-09-03T09:32:21.601Z,76.74
2022-09-03T09:33:18.464Z,77.61
2022-09-03T09:34:18.470Z,76.87
2022-09-03T09:35:18.501Z,75.9
2022-09-03T09:36:18.456Z,75.36
2022-09-03T09:37:18.462Z,74.93
2022-09-03T09:38:18.879Z,74.93
2022-09-03T09:39:18.497Z,74.35
2022-09-03T09:40:18.480Z,74.64
2022-09-03T09:41:18.462Z,74.35
2022-09-03T09:42:18.473Z,74.45
2022-09-03T09:43:18.524Z,74.19
2022-09-03T09:44:18.775Z,74.16
2022-09-03T09:45:18.474Z,74.93
2022-09-03T09:46:18.603Z,75.57
2022-09-03T09:47:21.600Z,75.03
2022-09-03T09:48:18.595Z,75.42
2022-09-03T09:49:18.525Z,74.77
2022-09-03T09:50:28.711Z,74.39
2022-09-03T09:51:18.484Z,74.29
2022-09-03T09:52:18.486Z,75.1
2022-09-03T09:53:18.502Z,74.27
2022-09-03T09:54:18.499Z,73.39
2022-09-03T09:55:18.493Z,73.65
2022-09-03T09:56:18.492Z,73.42
2022-09-03T09:57:18.496Z,73.71
2022-09-03T09:58:21.399Z,73.8
2022-09-03T09:59:18.536Z,73.16
2022-09-03T10:00:18.553Z,73.8
2022-09-03T10:01:18.582Z,74.62
2022-09-03T10:02:24.886Z,74.62
2022-09-03T10:03:18.671Z,74.65
2022-09-03T10:04:18.520Z,74.11
2022-09-03T10:05:18.505Z,72.65
2022-09-03T10:06:18.517Z,72.85
2022-09-03T10:07:18.517Z,72.07
2022-09-03T10:08:18.605Z,72.07
2022-09-03T10:09:21.683Z,71.78
2022-09-03T10:10:20.594Z,71.55
2022-09-03T10:11:18.539Z,71.36
2022-09-03T10:12:18.522Z,72.17
2022-09-03T10:13:18.566Z,72.27
2022-09-03T10:14:18.533Z,72.94
2022-09-03T10:15:18.536Z,73.62
2022-09-03T10:16:18.519Z,73.18
2022-09-03T10:17:22.006Z,72.01
2022-09-03T10:18:19.827Z,72.01
2022-09-03T10:19:18.553Z,72.01
2022-09-03T10:20:21.628Z,71.42
2022-09-03T10:21:18.568Z,71.17
2022-09-03T10:22:18.545Z,71.33
2022-09-03T10:23:18.564Z,72.11
2022-09-03T10:24:18.391Z,71.91
2022-09-03T10:25:18.385Z,71.85
2022-09-03T10:26:18.550Z,71.17
2022-09-03T10:27:18.555Z,70.58
2022-09-03T10:28:18.604Z,70.29
2022-09-03T10:29:18.562Z,71.17
2022-09-03T10:30:18.557Z,70.97
2022-09-03T10:31:22.944Z,70.78
2022-09-03T10:32:18.724Z,70.68
2022-09-03T10:33:18.592Z,70.87
2022-09-03T10:34:18.564Z,70.65
2022-09-03T10:35:18.571Z,71.07
2022-09-03T10:36:18.570Z,70.87
2022-09-03T10:37:18.573Z,71.52
2022-09-03T10:38:18.690Z,71.48
2022-09-03T10:39:18.603Z,72.17
2022-09-03T10:40:18.789Z,72.07
2022-09-03T10:41:18.580Z,72.65
2022-09-03T10:42:21.343Z,73
2022-09-03T10:43:18.606Z,73.78
2022-09-03T10:44:18.592Z,73.46
2022-09-03T10:45:18.594Z,73.2
2022-09-03T10:46:24.449Z,73.65
2022-09-03T10:47:18.590Z,73.88
2022-09-03T10:48:18.834Z,74.23
2022-09-03T10:49:18.594Z,74.49
2022-09-03T10:50:18.728Z,74.77
2022-09-03T10:51:18.593Z,75.81
2022-09-03T10:52:18.605Z,75.81
2022-09-03T10:53:21.887Z,76
2022-09-03T10:54:18.608Z,75.81
2022-09-03T10:55:18.615Z,76.35
2022-09-03T10:56:18.611Z,77.26
2022-09-03T10:57:18.609Z,77.03
2022-09-03T10:58:18.711Z,77.26
2022-09-03T10:59:18.624Z,76.72
2022-09-03T11:00:18.620Z,75.94
2022-09-03T11:01:18.790Z,75.55
2022-09-03T11:02:18.750Z,76.04
2022-09-03T11:03:23.501Z,75.94
2022-09-03T11:04:21.528Z,75.98
2022-09-03T11:05:18.631Z,75.98
2022-09-03T11:06:18.626Z,75.98
2022-09-03T11:07:18.627Z,75.4
2022-09-03T11:08:18.761Z,75.49
2022-09-03T11:09:18.655Z,76.27
2022-09-03T11:10:18.638Z,77.04
2022-09-03T11:11:18.636Z,77.43
2022-09-03T11:12:18.639Z,77.26
2022-09-03T11:13:18.668Z,77.26
2022-09-03T11:14:18.646Z,77.26
2022-09-03T11:15:23.434Z,77.65
2022-09-03T11:16:18.760Z,77.8
2022-09-03T11:17:18.650Z,78
2022-09-03T11:18:18.708Z,78.67
2022-09-03T11:19:18.647Z,78.61
2022-09-03T11:20:18.654Z,79.06
2022-09-03T11:21:18.661Z,79.25
2022-09-03T11:22:23.167Z,79.64
2022-09-03T11:23:18.682Z,79.74
2022-09-03T11:24:18.669Z,79.64
2022-09-03T11:25:18.659Z,79.74
2022-09-03T11:26:18.668Z,80.17
2022-09-03T11:27:18.672Z,80.46
2022-09-03T11:28:18.780Z,79.3
2022-09-03T11:29:20.565Z,78.91
2022-09-03T11:30:18.687Z,79.45
2022-09-03T11:31:18.892Z,79.45
2022-09-03T11:32:18.676Z,79.45
2022-09-03T11:33:18.703Z,79.74
2022-09-03T11:34:34.022Z,80.22
2022-09-03T11:35:18.690Z,79.84
2022-09-03T11:36:18.685Z,79.49
2022-09-03T11:37:18.750Z,80.17
2022-09-03T11:38:18.809Z,80.17
2022-09-03T11:39:18.710Z,79.88
2022-09-03T11:40:18.700Z,79.78
2022-09-03T11:41:18.696Z,79.91
2022-09-03T11:42:21.531Z,79.43
2022-09-03T11:43:18.714Z,79.33
2022-09-03T11:44:18.705Z,80.11
2022-09-03T11:45:18.701Z,79.63
2022-09-03T11:46:18.834Z,79.33
2022-09-03T11:47:18.709Z,79.43
2022-09-03T11:48:18.750Z,79.43
2022-09-03T11:49:18.707Z,79
2022-09-03T11:50:18.709Z,79.78
2022-09-03T11:51:18.710Z,79.68
2022-09-03T11:52:18.715Z,80.07
2022-09-03T11:53:18.876Z,79.88
2022-09-03T11:54:18.990Z,80.17
2022-09-03T11:55:18.733Z,80.55
2022-09-03T11:56:18.729Z,79.72
2022-09-03T11:57:18.739Z,79.24
2022-09-03T11:58:18.745Z,78.99
2022-09-03T11:59:18.730Z,78.79
2022-09-03T12:00:18.729Z,78.34
2022-09-03T12:01:18.868Z,78.15
2022-09-03T12:02:18.796Z,77.7
2022-09-03T12:03:18.791Z,77.12
2022-09-03T12:04:18.793Z,77.31
2022-09-03T12:05:18.738Z,76.83
2022-09-03T12:06:18.742Z,77.31
2022-09-03T12:07:22.424Z,77.31
2022-09-03T12:08:18.761Z,76.87
2022-09-03T12:09:18.757Z,76.57
2022-09-03T12:10:18.749Z,76.09
2022-09-03T12:11:18.745Z,76.09
2022-09-03T12:12:18.751Z,76.9
2022-09-03T12:13:18.951Z,76.61
2022-09-03T12:14:21.760Z,76.12
2022-09-03T12:15:18.760Z,76.12
2022-09-03T12:16:18.909Z,76.22
2022-09-03T12:17:18.762Z,77.45
2022-09-03T12:18:18.780Z,77.06
2022-09-03T12:19:18.766Z,77.15
2022-09-03T12:20:18.766Z,77.45
2022-09-03T12:21:18.771Z,77.94
2022-09-03T12:22:18.770Z,77.74
2022-09-03T12:23:18.882Z,78.13
2022-09-03T12:24:18.772Z,78.19
2022-09-03T12:25:21.627Z,78.77
2022-09-03T12:26:18.775Z,78.77
2022-09-03T12:27:18.786Z,78.97
2022-09-03T12:28:18.799Z,79.02
2022-09-03T12:29:22.113Z,78.64
2022-09-03T12:30:18.800Z,79.12
2022-09-03T12:31:18.865Z,79.57
2022-09-03T12:32:18.799Z,79.96
2022-09-03T12:33:18.854Z,79.66
2022-09-03T12:34:18.794Z,80.54
2022-09-03T12:36:00.976Z,80.05
2022-09-03T12:36:21.880Z,79.57
2022-09-03T12:37:18.987Z,80.25
2022-09-03T12:38:21.186Z,80.25
2022-09-03T12:40:04.408Z,79.96
2022-09-03T12:40:20.402Z,81.37
2022-09-03T12:41:29.269Z,81.57
2022-09-03T12:42:20.322Z,81.66
2022-09-03T12:43:50.574Z,81.76
2022-09-03T12:44:20.326Z,82.05
2022-09-03T12:45:20.343Z,82.63
2022-09-03T12:46:20.617Z,81.85
2022-09-03T12:47:40.155Z,81.13
2022-09-03T12:48:20.360Z,81.72
2022-09-03T12:49:35.652Z,82.59
2022-09-03T12:50:22.440Z,82.63
2022-09-03T12:51:54.078Z,82.63
2022-09-03T12:52:20.968Z,82.2
2022-09-03T12:53:20.360Z,82.2
2022-09-03T12:54:20.376Z,82.2
2022-09-03T12:55:20.373Z,82.01
2022-09-03T12:56:20.356Z,82.55
2022-09-03T12:57:20.346Z,82.59